createdAt,value
2022-08-19T00:00:50.752Z,97673.97
2022-08-19T00:01:55.608Z,97668.97
2022-08-19T00:02:58.646Z,97678.47
2022-08-19T00:04:05.420Z,97673.50
2022-08-19T00:05:11.873Z,97677.78
2022-08-19T00:06:15.785Z,97673.59
2022-08-19T00:07:22.042Z,97667.72
2022-08-19T00:08:24.666Z,97681.28
2022-08-19T00:09:28.224Z,97680.09
2022-08-19T00:10:30.913Z,97671.38
2022-08-19T00:11:37.137Z,97669.03
2022-08-19T00:12:40.142Z,97672.41
2022-08-19T00:13:51.320Z,97670.16
2022-08-19T00:14:55.521Z,97660.91
2022-08-19T00:16:00.113Z,97662.13
2022-08-19T00:17:04.099Z,97665.84
2022-08-19T00:18:06.788Z,97672.75
2022-08-19T00:19:10.211Z,97667.38
2022-08-19T00:20:19.763Z,97674.28
2022-08-19T00:21:24.030Z,97672.47
2022-08-19T00:22:29.720Z,97676.34
2022-08-19T00:23:35.331Z,97662.63
2022-08-19T00:24:39.849Z,97671.78
2022-08-19T00:25:42.956Z,97675.91
2022-08-19T00:26:53.440Z,97668.53
2022-08-19T00:27:56.814Z,97666.41
2022-08-19T00:28:59.483Z,97679.56
2022-08-19T00:30:04.762Z,97677.22
2022-08-19T00:31:09.382Z,97675.47
2022-08-19T00:32:13.310Z,97669.28
2022-08-19T00:33:17.749Z,97674.66
2022-08-19T00:34:20.535Z,97666.94
2022-08-19T00:35:23.245Z,97666.94
2022-08-19T00:36:26.520Z,97668.47
2022-08-19T00:37:29.754Z,97666.53
2022-08-19T00:38:37.300Z,97663.09
2022-08-19T00:39:40.828Z,97663.91
2022-08-19T00:40:47.756Z,97670.72
2022-08-19T00:41:51.489Z,97671.16
2022-08-19T00:42:55.079Z,97661.97
2022-08-19T00:44:11.775Z,97662.19
2022-08-19T00:45:27.278Z,97666.94
2022-08-19T00:46:30.877Z,97666.94
2022-08-19T00:47:33.628Z,97661.63
2022-08-19T00:48:37.677Z,97661.69
2022-08-19T00:49:51.722Z,97658.47
2022-08-19T00:50:57.831Z,97656.66
2022-08-19T00:52:07.847Z,97654.09
2022-08-19T00:53:20.121Z,97651.31
2022-08-19T00:54:29.897Z,97659.19
2022-08-19T00:55:37.949Z,97664.53
2022-08-19T00:56:41.683Z,97654.59
2022-08-19T00:57:49.287Z,97658.00
2022-08-19T00:58:51.981Z,97658.31
2022-08-19T01:00:02.484Z,97660.56
2022-08-19T01:01:10.116Z,97660.94
2022-08-19T01:02:17.577Z,97661.00
2022-08-19T01:03:22.295Z,97669.56
2022-08-19T01:04:24.994Z,97670.03
2022-08-19T01:05:31.970Z,97667.94
2022-08-19T01:06:37.549Z,97668.34
2022-08-19T01:07:44.987Z,97660.37
2022-08-19T01:08:50.134Z,97666.06
2022-08-19T01:09:53.681Z,97659.19
2022-08-19T01:10:59.332Z,97653.69
2022-08-19T01:12:03.338Z,97664.91
2022-08-19T01:13:06.291Z,97662.50
2022-08-19T01:14:11.005Z,97654.94
2022-08-19T01:15:19.226Z,97663.91
2022-08-19T01:16:25.090Z,97653.00
2022-08-19T01:17:29.029Z,97645.25
2022-08-19T01:18:33.585Z,97645.22
2022-08-19T01:19:44.018Z,97653.22
2022-08-19T01:20:48.005Z,97651.75
2022-08-19T01:22:31.417Z,97653.97
2022-08-19T01:23:44.626Z,97652.41
2022-08-19T01:24:49.693Z,97653.22
2022-08-19T01:25:55.646Z,97657.06
2022-08-19T01:26:59.385Z,97645.56
2022-08-19T01:28:10.974Z,97651.06
2022-08-19T01:29:15.087Z,97649.06
2022-08-19T01:30:23.642Z,97651.00
2022-08-19T01:31:32.485Z,97651.50
2022-08-19T01:32:36.207Z,97654.88
2022-08-19T01:33:40.058Z,97645.09
2022-08-19T01:34:43.130Z,97647.56
2022-08-19T01:35:49.821Z,97657.19
2022-08-19T01:36:53.918Z,97642.19
2022-08-19T01:38:03.619Z,97643.81
2022-08-19T01:39:10.707Z,97641.94
2022-08-19T01:40:13.459Z,97638.16
2022-08-19T01:41:18.637Z,97638.16
2022-08-19T01:42:23.099Z,97644.69
2022-08-19T01:43:34.907Z,97628.16
2022-08-19T01:44:38.870Z,97632.84
2022-08-19T01:45:42.264Z,97630.78
2022-08-19T01:46:45.283Z,97627.47
2022-08-19T01:48:01.024Z,97625.31
2022-08-19T01:49:07.556Z,97625.94
2022-08-19T01:50:12.107Z,97617.25
2022-08-19T01:51:15.281Z,97619.12
2022-08-19T01:52:17.972Z,97621.22
2022-08-19T01:53:20.986Z,97619.38
2022-08-19T01:54:27.926Z,97621.28
2022-08-19T01:55:31.136Z,97614.81
2022-08-19T01:56:33.897Z,97611.25
2022-08-19T01:57:37.237Z,97600.94
2022-08-19T01:58:47.501Z,97606.34
2022-08-19T01:59:51.449Z,97607.97
2022-08-19T02:00:54.613Z,97607.63
2022-08-19T02:01:57.391Z,97599.53
2022-08-19T02:03:02.305Z,97604.12
2022-08-19T02:04:06.229Z,97595.03
2022-08-19T02:05:10.692Z,97601.84
2022-08-19T02:06:14.748Z,97597.38
2022-08-19T02:07:21.627Z,97592.00
2022-08-19T02:08:24.698Z,97593.22
2022-08-19T02:09:27.574Z,97598.13
2022-08-19T02:10:30.187Z,97600.06
2022-08-19T02:11:35.140Z,97597.44
2022-08-19T02:12:38.196Z,97597.44
2022-08-19T02:13:40.837Z,97595.88
2022-08-19T02:14:44.114Z,97596.25
2022-08-19T02:15:46.859Z,97600.94
2022-08-19T02:16:49.620Z,97602.72
2022-08-19T02:17:53.004Z,97602.78
2022-08-19T02:18:55.909Z,97610.50
2022-08-19T02:19:58.770Z,97603.94
2022-08-19T02:21:01.389Z,97603.84
2022-08-19T02:22:04.187Z,97600.87
2022-08-19T02:23:13.974Z,97604.31
2022-08-19T02:24:18.997Z,97590.66
2022-08-19T02:25:22.036Z,97587.25
2022-08-19T02:26:24.996Z,97585.22
2022-08-19T02:27:27.793Z,97577.75
2022-08-19T02:28:30.695Z,97587.66
2022-08-19T02:29:33.488Z,97586.78
2022-08-19T02:30:36.226Z,97581.72
2022-08-19T02:31:38.856Z,97584.22
2022-08-19T02:32:44.731Z,97583.91
2022-08-19T02:33:48.877Z,97585.41
2022-08-19T02:34:51.548Z,97599.91
2022-08-19T02:35:54.145Z,97597.94
2022-08-19T02:36:59.695Z,97598.13
2022-08-19T02:38:24.718Z,97596.94
2022-08-19T02:39:27.589Z,97597.72
2022-08-19T02:40:35.347Z,97594.72
2022-08-19T02:41:38.157Z,97600.16
2022-08-19T02:42:42.057Z,97599.16
2022-08-19T02:44:26.274Z,97593.72
2022-08-19T02:45:08.826Z,97593.22
2022-08-19T02:46:37.805Z,97593.47
2022-08-19T02:47:40.842Z,97593.28
2022-08-19T02:48:43.592Z,97603.94
2022-08-19T02:49:47.209Z,97602.44
2022-08-19T02:50:56.493Z,97602.31
2022-08-19T02:51:59.297Z,97603.19
2022-08-19T02:53:02.038Z,97610.06
2022-08-19T02:54:06.242Z,97605.56
2022-08-19T02:55:09.327Z,97605.94
2022-08-19T02:56:12.053Z,97612.56
2022-08-19T02:57:14.815Z,97611.50
2022-08-19T02:58:18.646Z,97612.94
2022-08-19T02:59:22.952Z,97616.66
2022-08-19T03:00:25.917Z,97615.13
2022-08-19T03:01:32.511Z,97613.69
2022-08-19T03:02:35.364Z,97614.78
2022-08-19T03:03:39.157Z,97611.94
2022-08-19T03:04:43.309Z,97609.22
2022-08-19T03:05:55.783Z,97604.56
2022-08-19T03:07:07.197Z,97613.38
2022-08-19T03:08:14.928Z,97607.56
2022-08-19T03:09:19.440Z,97609.50
2022-08-19T03:10:22.091Z,97615.69
2022-08-19T03:11:31.707Z,97614.25
2022-08-19T03:12:37.854Z,97620.41
2022-08-19T03:13:40.578Z,97623.69
2022-08-19T03:14:43.259Z,97624.66
2022-08-19T03:15:48.560Z,97626.34
2022-08-19T03:16:53.508Z,97626.41
2022-08-19T03:17:56.194Z,97621.00
2022-08-19T03:19:02.833Z,97629.56
2022-08-19T03:20:06.295Z,97626.16
2022-08-19T03:21:12.346Z,97632.34
2022-08-19T03:22:15.339Z,97636.19
2022-08-19T03:23:18.435Z,97634.47
2022-08-19T03:24:21.358Z,97631.03
2022-08-19T03:25:24.088Z,97627.78
2022-08-19T03:26:27.453Z,97625.91
2022-08-19T03:27:34.228Z,97625.22
2022-08-19T03:28:38.483Z,97629.84
2022-08-19T03:29:43.229Z,97631.00
2022-08-19T03:31:01.502Z,97632.88
2022-08-19T03:32:05.928Z,97639.44
2022-08-19T03:33:18.033Z,97639.84
2022-08-19T03:34:28.903Z,97643.72
2022-08-19T03:35:31.667Z,97644.41
2022-08-19T03:36:34.387Z,97642.78
2022-08-19T03:37:37.305Z,97647.09
2022-08-19T03:38:47.468Z,97644.72
2022-08-19T03:39:50.222Z,97644.03
2022-08-19T03:40:52.836Z,97642.66
2022-08-19T03:42:32.927Z,97633.81
2022-08-19T03:43:23.956Z,97646.81
2022-08-19T03:44:26.918Z,97637.72
2022-08-19T03:45:30.118Z,97631.31
2022-08-19T03:46:34.608Z,97641.19
2022-08-19T03:47:38.269Z,97650.09
2022-08-19T03:48:42.507Z,97649.75
2022-08-19T03:49:45.918Z,97650.50
2022-08-19T03:50:48.538Z,97656.34
2022-08-19T03:51:51.618Z,97658.25
2022-08-19T03:52:54.446Z,97665.91
2022-08-19T03:53:59.333Z,97663.97
2022-08-19T03:55:02.065Z,97658.25
2022-08-19T03:56:04.880Z,97661.72
2022-08-19T03:57:08.831Z,97657.25
2022-08-19T03:58:12.456Z,97652.31
2022-08-19T03:59:27.507Z,97640.06
2022-08-19T04:00:30.143Z,97646.56
2022-08-19T04:01:35.171Z,97641.75
2022-08-19T04:02:41.940Z,97641.41
2022-08-19T04:03:47.643Z,97643.63
2022-08-19T04:04:50.286Z,97645.22
2022-08-19T04:05:53.106Z,97655.13
2022-08-19T04:06:56.387Z,97651.19
2022-08-19T04:08:00.418Z,97657.72
2022-08-19T04:09:06.761Z,97662.06
2022-08-19T04:10:10.606Z,97660.91
2022-08-19T04:11:16.076Z,97654.34
2022-08-19T04:12:20.387Z,97660.53
2022-08-19T04:13:26.931Z,97666.25
2022-08-19T04:14:33.513Z,97667.47
2022-08-19T04:15:42.487Z,97670.19
2022-08-19T04:16:49.076Z,97668.59
2022-08-19T04:17:51.752Z,97665.50
2022-08-19T04:18:58.233Z,97669.69
2022-08-19T04:20:01.048Z,97670.84
2022-08-19T04:21:17.892Z,97677.75
2022-08-19T04:22:20.702Z,97676.25
2022-08-19T04:23:24.161Z,97663.19
2022-08-19T04:24:26.880Z,97662.03
2022-08-19T04:25:29.525Z,97660.56
2022-08-19T04:26:36.768Z,97660.19
2022-08-19T04:27:39.437Z,97664.41
2022-08-19T04:28:42.425Z,97668.22
2022-08-19T04:29:45.107Z,97661.34
2022-08-19T04:30:51.448Z,97664.00
2022-08-19T04:31:59.681Z,97668.28
2022-08-19T04:33:02.295Z,97671.31
2022-08-19T04:34:13.950Z,97668.97
2022-08-19T04:35:21.057Z,97675.06
2022-08-19T04:36:34.010Z,97674.34
2022-08-19T04:37:36.677Z,97674.31
2022-08-19T04:38:39.334Z,97669.31
2022-08-19T04:40:02.254Z,97681.56
2022-08-19T04:41:24.415Z,97676.22
2022-08-19T04:42:42.368Z,97680.06
2022-08-19T04:43:49.930Z,97679.31
2022-08-19T04:44:52.785Z,97673.56
2022-08-19T04:46:00.749Z,97677.72
2022-08-19T04:47:11.139Z,97675.75
2022-08-19T04:48:26.194Z,97662.91
2022-08-19T04:49:31.193Z,97664.03
2022-08-19T04:50:34.114Z,97663.63
2022-08-19T04:51:37.979Z,97670.19
2022-08-19T04:52:43.923Z,97658.38
2022-08-19T04:53:47.131Z,97663.28
2022-08-19T04:54:49.964Z,97670.97
2022-08-19T04:55:52.912Z,97666.72
2022-08-19T04:56:55.892Z,97669.06
2022-08-19T04:57:58.806Z,97675.87
2022-08-19T04:59:06.959Z,97673.28
2022-08-19T05:00:10.940Z,97676.25
2022-08-19T05:01:15.777Z,97672.41
2022-08-19T05:02:18.517Z,97678.94
2022-08-19T05:03:22.129Z,97675.78
2022-08-19T05:04:24.893Z,97670.44
2022-08-19T05:05:27.474Z,97683.00
2022-08-19T05:06:32.605Z,97679.56
2022-08-19T05:07:35.550Z,97679.22
2022-08-19T05:08:42.767Z,97674.63
2022-08-19T05:09:56.758Z,97679.22
2022-08-19T05:11:01.814Z,97668.06
2022-08-19T05:12:04.975Z,97668.37
2022-08-19T05:13:10.494Z,97678.63
2022-08-19T05:14:14.112Z,97679.81
2022-08-19T05:15:17.030Z,97670.69
2022-08-19T05:16:23.020Z,97680.16
2022-08-19T05:17:33.280Z,97670.88
2022-08-19T05:18:59.314Z,97674.78
2022-08-19T05:20:20.961Z,97671.31
2022-08-19T05:21:42.444Z,97668.63
2022-08-19T05:22:47.695Z,97671.25
2022-08-19T05:23:50.463Z,97664.06
2022-08-19T05:25:11.790Z,97669.41
2022-08-19T05:26:15.185Z,97671.63
2022-08-19T05:27:18.129Z,97676.22
2022-08-19T05:28:22.572Z,97677.78
2022-08-19T05:29:31.787Z,97671.97
2022-08-19T05:30:47.235Z,97670.38
2022-08-19T05:31:51.487Z,97673.09
2022-08-19T05:32:54.712Z,97671.13
2022-08-19T05:33:59.990Z,97680.22
2022-08-19T05:35:03.061Z,97662.56
2022-08-19T05:36:06.019Z,97669.09
2022-08-19T05:37:10.028Z,97675.13
2022-08-19T05:38:13.820Z,97680.88
2022-08-19T05:39:24.097Z,97688.09
2022-08-19T05:40:26.857Z,97680.00
2022-08-19T05:41:30.536Z,97682.16
2022-08-19T05:42:33.217Z,97684.47
2022-08-19T05:43:35.931Z,97684.09
2022-08-19T05:44:45.112Z,97685.16
2022-08-19T05:45:47.875Z,97677.84
2022-08-19T05:46:53.992Z,97686.50
2022-08-19T05:47:56.909Z,97675.38
2022-08-19T05:48:59.750Z,97680.56
2022-08-19T05:50:04.890Z,97676.37
2022-08-19T05:51:09.452Z,97681.34
2022-08-19T05:52:18.696Z,97686.19
2022-08-19T05:53:21.880Z,97672.44
2022-08-19T05:54:25.312Z,97678.56
2022-08-19T05:55:27.925Z,97680.38
2022-08-19T05:56:31.808Z,97681.78
2022-08-19T05:57:34.645Z,97680.44
2022-08-19T05:58:42.850Z,97683.72
2022-08-19T05:59:47.469Z,97679.47
2022-08-19T06:00:50.298Z,97690.63
2022-08-19T06:01:56.733Z,97687.94
2022-08-19T06:03:00.805Z,97686.78
2022-08-19T06:04:14.756Z,97681.66
2022-08-19T06:05:17.732Z,97678.84
2022-08-19T06:06:21.553Z,97681.81
2022-08-19T06:07:24.254Z,97684.47
2022-08-19T06:08:34.387Z,97684.00
2022-08-19T06:09:38.489Z,97690.97
2022-08-19T06:10:41.414Z,97683.91
2022-08-19T06:12:01.007Z,97684.22
2022-08-19T06:13:04.066Z,97677.31
2022-08-19T06:14:16.663Z,97677.84
2022-08-19T06:15:19.728Z,97686.66
2022-08-19T06:16:23.533Z,97679.19
2022-08-19T06:17:26.849Z,97675.31
2022-08-19T06:18:29.518Z,97676.47
2022-08-19T06:19:32.662Z,97686.88
2022-08-19T06:20:55.014Z,97681.50
2022-08-19T06:21:59.583Z,97688.84
2022-08-19T06:23:06.005Z,97680.84
2022-08-19T06:24:12.732Z,97683.53
2022-08-19T06:25:15.889Z,97680.38
2022-08-19T06:26:20.709Z,97680.22
2022-08-19T06:27:23.894Z,97676.28
2022-08-19T06:28:26.558Z,97671.19
2022-08-19T06:29:30.500Z,97679.75
2022-08-19T06:30:33.650Z,97668.41
2022-08-19T06:31:37.783Z,97664.50
2022-08-19T06:32:42.894Z,97664.66
2022-08-19T06:33:46.210Z,97669.47
2022-08-19T06:34:48.962Z,97669.06
2022-08-19T06:35:51.849Z,97670.22
2022-08-19T06:36:56.061Z,97670.16
2022-08-19T06:37:58.899Z,97669.69
2022-08-19T06:39:12.202Z,97667.47
2022-08-19T06:40:15.928Z,97668.69
2022-08-19T06:41:18.575Z,97667.84
2022-08-19T06:42:21.714Z,97663.56
2022-08-19T06:43:28.179Z,97664.75
2022-08-19T06:44:40.591Z,97662.41
2022-08-19T06:45:46.107Z,97668.00
2022-08-19T06:46:53.599Z,97660.03
2022-08-19T06:47:57.855Z,97663.56
2022-08-19T06:49:01.343Z,97662.41
2022-08-19T06:50:05.769Z,97666.31
2022-08-19T06:51:08.909Z,97675.25
2022-08-19T06:52:13.808Z,97666.06
2022-08-19T06:53:16.818Z,97670.69
2022-08-19T06:54:20.527Z,97674.91
2022-08-19T06:55:23.235Z,97682.66
2022-08-19T06:56:34.915Z,97685.16
2022-08-19T06:57:37.599Z,97687.38
2022-08-19T06:58:40.318Z,97688.97
2022-08-19T06:59:47.794Z,97690.72
2022-08-19T07:00:51.438Z,97696.41
2022-08-19T07:01:57.878Z,97703.12
2022-08-19T07:03:05.988Z,97700.69
2022-08-19T07:04:12.070Z,97707.94
2022-08-19T07:05:15.060Z,97700.69
2022-08-19T07:07:44.923Z,97721.13
2022-08-19T07:08:51.694Z,97718.41
2022-08-19T07:09:59.206Z,97705.94
2022-08-19T07:11:11.908Z,97711.50
2022-08-19T07:12:16.569Z,97711.69
2022-08-19T07:13:20.425Z,97714.63
2022-08-19T07:14:26.574Z,97708.75
2022-08-19T07:15:29.198Z,97705.13
2022-08-19T07:16:31.986Z,97706.81
2022-08-19T07:17:36.800Z,97710.88
2022-08-19T07:18:43.921Z,97713.28
2022-08-19T07:19:47.923Z,97710.03
2022-08-19T07:20:51.676Z,97713.31
2022-08-19T07:21:56.405Z,97712.84
2022-08-19T07:22:59.654Z,97719.66
2022-08-19T07:24:04.147Z,97718.12
2022-08-19T07:25:10.853Z,97715.84
2022-08-19T07:26:21.363Z,97715.66
2022-08-19T07:27:31.193Z,97712.06
2022-08-19T07:28:40.376Z,97717.56
2022-08-19T07:29:57.277Z,97712.59
2022-08-19T07:31:03.012Z,97710.00
2022-08-19T07:32:11.553Z,97702.25
2022-08-19T07:33:16.235Z,97709.09
2022-08-19T07:34:20.674Z,97710.91
2022-08-19T07:35:24.633Z,97708.66
2022-08-19T07:36:33.369Z,97705.47
2022-08-19T07:37:38.174Z,97712.72
2022-08-19T07:38:45.615Z,97715.37
2022-08-19T07:39:48.821Z,97710.47
2022-08-19T07:40:52.505Z,97711.66
2022-08-19T07:42:00.301Z,97708.19
2022-08-19T07:43:03.217Z,97710.97
2022-08-19T07:44:08.487Z,97712.66
2022-08-19T07:45:11.368Z,97715.25
2022-08-19T07:46:14.639Z,97716.50
2022-08-19T07:47:48.306Z,97710.91
2022-08-19T07:48:43.614Z,97709.88
2022-08-19T07:49:46.256Z,97714.22
2022-08-19T07:50:49.601Z,97712.63
2022-08-19T07:52:02.476Z,97708.69
2022-08-19T07:53:05.223Z,97710.66
2022-08-19T07:54:07.873Z,97708.38
2022-08-19T07:55:41.654Z,97708.53
2022-08-19T07:56:34.696Z,97715.81
2022-08-19T07:57:37.379Z,97712.00
2022-08-19T07:58:43.223Z,97718.81
2022-08-19T07:59:45.958Z,97719.12
2022-08-19T08:00:50.824Z,97716.72
2022-08-19T08:01:53.785Z,97716.16
2022-08-19T08:02:56.664Z,97713.34
2022-08-19T08:04:18.340Z,97712.22
2022-08-19T08:05:43.005Z,97720.31
2022-08-19T08:07:05.218Z,97719.41
2022-08-19T08:08:27.731Z,97724.41
2022-08-19T08:09:35.244Z,97720.22
2022-08-19T08:10:53.107Z,97718.59
2022-08-19T08:12:33.225Z,97724.81
2022-08-19T08:13:30.663Z,97716.84
2022-08-19T08:14:43.958Z,97724.06
2022-08-19T08:15:46.918Z,97722.84
2022-08-19T08:16:52.341Z,97727.09
2022-08-19T08:17:55.025Z,97730.88
2022-08-19T08:18:58.023Z,97726.94
2022-08-19T08:20:00.938Z,97723.63
2022-08-19T08:21:03.720Z,97723.16
2022-08-19T08:22:09.110Z,97726.50
2022-08-19T08:23:23.759Z,97720.34
2022-08-19T08:24:28.992Z,97715.81
2022-08-19T08:25:34.239Z,97717.91
2022-08-19T08:26:37.522Z,97718.00
2022-08-19T08:27:42.331Z,97728.44
2022-08-19T08:28:47.923Z,97721.50
2022-08-19T08:29:52.796Z,97725.28
2022-08-19T08:30:55.761Z,97718.28
2022-08-19T08:32:00.264Z,97721.81
2022-08-19T08:33:03.211Z,97719.38
2022-08-19T08:34:05.918Z,97716.81
2022-08-19T08:35:12.316Z,97719.91
2022-08-19T08:36:16.009Z,97724.00
2022-08-19T08:37:18.765Z,97713.78
2022-08-19T08:38:21.557Z,97710.41
2022-08-19T08:39:24.282Z,97722.31
2022-08-19T08:40:50.041Z,97710.06
2022-08-19T08:42:37.750Z,97706.50
2022-08-19T08:43:44.659Z,97704.88
2022-08-19T08:45:07.704Z,97694.88
2022-08-19T08:46:31.561Z,97682.50
2022-08-19T08:47:42.101Z,97684.00
2022-08-19T08:49:01.531Z,97690.78
2022-08-19T08:50:15.920Z,97693.53
2022-08-19T08:51:23.781Z,97697.34
2022-08-19T08:52:32.205Z,97699.69
2022-08-19T08:53:41.436Z,97704.13
2022-08-19T08:54:48.872Z,97706.75
2022-08-19T08:56:01.660Z,97708.22
2022-08-19T08:57:12.398Z,97707.37
2022-08-19T08:58:25.565Z,97718.16
2022-08-19T08:59:35.855Z,97714.91
2022-08-19T09:00:39.856Z,97705.31
2022-08-19T09:01:42.509Z,97707.22
2022-08-19T09:02:50.983Z,97702.41
2022-08-19T09:03:56.374Z,97707.66
2022-08-19T09:05:06.290Z,97713.50
2022-08-19T09:06:30.203Z,97703.78
2022-08-19T09:08:19.297Z,97706.72
2022-08-19T09:09:44.566Z,97701.94
2022-08-19T09:10:55.669Z,97710.56
2022-08-19T09:12:16.750Z,97695.19
2022-08-19T09:13:37.506Z,97700.44
2022-08-19T09:14:52.310Z,97711.00
2022-08-19T09:16:06.547Z,97693.63
2022-08-19T09:17:10.855Z,97707.66
2022-08-19T09:18:15.314Z,97699.41
2022-08-19T09:19:22.237Z,97695.94
2022-08-19T09:20:26.227Z,97698.19
2022-08-19T09:21:30.560Z,97699.69
2022-08-19T09:22:46.250Z,97702.78
2022-08-19T09:23:51.131Z,97690.06
2022-08-19T09:24:55.771Z,97690.94
2022-08-19T09:25:58.596Z,97692.25
2022-08-19T09:27:04.490Z,97694.53
2022-08-19T09:28:22.053Z,97682.91
2022-08-19T09:29:25.742Z,97677.37
2022-08-19T09:30:31.372Z,97680.53
2022-08-19T09:31:34.046Z,97685.78
2022-08-19T09:32:37.092Z,97677.78
2022-08-19T09:33:39.725Z,97671.34
2022-08-19T09:34:44.264Z,97676.84
2022-08-19T09:35:49.807Z,97677.34
2022-08-19T09:36:59.337Z,97678.53
2022-08-19T09:38:02.293Z,97684.09
2022-08-19T09:39:16.153Z,97686.34
2022-08-19T09:40:21.298Z,97686.28
2022-08-19T09:41:28.723Z,97683.34
2022-08-19T09:42:35.145Z,97680.84
2022-08-19T09:43:44.523Z,97687.25
2022-08-19T09:44:50.587Z,97688.16
2022-08-19T09:45:53.718Z,97677.03
2022-08-19T09:46:57.265Z,97685.88
2022-08-19T09:48:00.078Z,97676.66
2022-08-19T09:49:06.556Z,97675.28
2022-08-19T09:50:12.339Z,97673.84
2022-08-19T09:51:23.552Z,97669.94
2022-08-19T09:52:32.476Z,97663.56
2022-08-19T09:53:37.357Z,97665.41
2022-08-19T09:54:40.580Z,97663.50
2022-08-19T09:55:50.219Z,97665.91
2022-08-19T09:56:58.940Z,97659.31
2022-08-19T09:58:03.159Z,97660.97
2022-08-19T09:59:05.890Z,97678.28
2022-08-19T10:00:10.400Z,97660.78
2022-08-19T10:01:23.000Z,97648.31
2022-08-19T10:02:26.073Z,97665.66
2022-08-19T10:03:33.117Z,97666.97
2022-08-19T10:04:54.657Z,97678.13
2022-08-19T10:05:59.784Z,97663.09
2022-08-19T10:07:02.433Z,97672.81
2022-08-19T10:08:13.933Z,97669.91
2022-08-19T10:09:33.734Z,97677.25
2022-08-19T10:10:37.636Z,97661.63
2022-08-19T10:11:54.686Z,97676.19
2022-08-19T10:12:57.977Z,97664.91
2022-08-19T10:14:01.695Z,97662.72
2022-08-19T10:15:07.360Z,97664.03
2022-08-19T10:16:17.003Z,97656.81
2022-08-19T10:17:21.523Z,97661.72
2022-08-19T10:18:27.019Z,97664.03
2022-08-19T10:19:36.905Z,97659.97
2022-08-19T10:20:39.584Z,97656.59
2022-08-19T10:21:43.208Z,97661.91
2022-08-19T10:22:45.863Z,97662.63
2022-08-19T10:23:58.570Z,97673.38
2022-08-19T10:25:04.883Z,97668.81
2022-08-19T10:26:08.700Z,97647.63
2022-08-19T10:27:11.466Z,97650.47
2022-08-19T10:28:14.121Z,97648.75
2022-08-19T10:29:31.919Z,97640.13
2022-08-19T10:30:36.845Z,97645.28
2022-08-19T10:32:02.506Z,97656.28
2022-08-19T10:33:04.391Z,97663.75
2022-08-19T10:34:26.794Z,97654.81
2022-08-19T10:35:30.612Z,97661.81
2022-08-19T10:36:56.079Z,97664.03
2022-08-19T10:38:03.545Z,97657.56
2022-08-19T10:39:10.859Z,97660.78
2022-08-19T10:40:13.813Z,97659.22
2022-08-19T10:41:19.678Z,97667.69
2022-08-19T10:42:22.385Z,97662.88
2022-08-19T10:43:26.125Z,97658.53
2022-08-19T10:44:32.612Z,97650.16
2022-08-19T10:45:35.394Z,97656.28
2022-08-19T10:46:48.933Z,97650.59
2022-08-19T10:47:56.343Z,97655.47
2022-08-19T10:49:01.043Z,97663.28
2022-08-19T10:50:28.457Z,97657.88
2022-08-19T10:51:50.944Z,97654.47
2022-08-19T10:52:53.705Z,97661.03
2022-08-19T10:53:59.604Z,97654.34
2022-08-19T10:55:22.528Z,97650.41
2022-08-19T10:56:44.864Z,97653.19
2022-08-19T10:58:01.840Z,97657.41
2022-08-19T10:59:06.265Z,97650.41
2022-08-19T11:00:09.777Z,97654.56
2022-08-19T11:01:12.586Z,97659.41
2022-08-19T11:02:15.467Z,97652.56
2022-08-19T11:03:20.017Z,97647.97
2022-08-19T11:04:28.799Z,97638.59
2022-08-19T11:05:36.613Z,97648.09
2022-08-19T11:06:44.572Z,97641.75
2022-08-19T11:07:47.349Z,97644.22
2022-08-19T11:08:50.051Z,97647.56
2022-08-19T11:09:52.812Z,97643.94
2022-08-19T11:10:58.670Z,97656.13
2022-08-19T11:12:03.057Z,97645.41
2022-08-19T11:13:07.852Z,97659.94
2022-08-19T11:14:13.515Z,97656.31
2022-08-19T11:15:16.658Z,97655.63
2022-08-19T11:16:23.636Z,97648.66
2022-08-19T11:17:26.265Z,97655.88
2022-08-19T11:18:29.790Z,97662.13
2022-08-19T11:19:32.445Z,97662.00
2022-08-19T11:20:35.228Z,97660.06
2022-08-19T11:21:44.421Z,97651.94
2022-08-19T11:22:47.656Z,97657.12
2022-08-19T11:23:54.896Z,97665.38
2022-08-19T11:25:01.379Z,97653.66
2022-08-19T11:26:04.773Z,97660.63
2022-08-19T11:27:10.868Z,97657.91
2022-08-19T11:28:14.228Z,97661.31
2022-08-19T11:29:20.316Z,97647.59
2022-08-19T11:30:23.026Z,97655.34
2022-08-19T11:31:31.844Z,97653.75
2022-08-19T11:32:39.272Z,97651.47
2022-08-19T11:33:42.549Z,97656.31
2022-08-19T11:34:50.708Z,97657.81
2022-08-19T11:35:55.284Z,97643.88
2022-08-19T11:36:59.878Z,97652.16
2022-08-19T11:38:07.185Z,97650.94
2022-08-19T11:39:15.056Z,97654.37
2022-08-19T11:40:17.997Z,97650.41
2022-08-19T11:41:24.478Z,97649.94
2022-08-19T11:42:45.828Z,97646.94
2022-08-19T11:43:48.588Z,97647.44
2022-08-19T11:44:52.230Z,97651.66
2022-08-19T11:45:56.811Z,97651.88
2022-08-19T11:47:09.093Z,97653.59
2022-08-19T11:48:12.043Z,97643.38
2022-08-19T11:49:17.361Z,97640.66
2022-08-19T11:50:20.997Z,97636.47
2022-08-19T11:51:28.319Z,97643.66
2022-08-19T11:52:31.490Z,97644.06
2022-08-19T11:53:35.534Z,97641.91
2022-08-19T11:54:38.208Z,97634.19
2022-08-19T11:55:44.225Z,97637.47
2022-08-19T11:56:48.901Z,97634.97
2022-08-19T11:57:51.951Z,97633.19
2022-08-19T11:58:57.978Z,97629.69
2022-08-19T12:00:00.796Z,97630.50
2022-08-19T12:01:08.512Z,97628.25
2022-08-19T12:02:11.929Z,97644.13
2022-08-19T12:03:15.466Z,97632.03
2022-08-19T12:04:18.593Z,97634.25
2022-08-19T12:05:23.015Z,97632.91
2022-08-19T12:06:29.810Z,97632.16
2022-08-19T12:07:34.500Z,97626.72
2022-08-19T12:08:37.751Z,97629.44
2022-08-19T12:09:42.614Z,97633.13
2022-08-19T12:10:46.650Z,97640.69
2022-08-19T12:11:49.497Z,97641.28
2022-08-19T12:12:55.787Z,97632.63
2022-08-19T12:14:01.853Z,97629.38
2022-08-19T12:15:04.998Z,97635.53
2022-08-19T12:16:13.663Z,97640.56
2022-08-19T12:17:16.415Z,97637.50
2022-08-19T12:18:19.074Z,97635.22
2022-08-19T12:19:22.605Z,97636.63
2022-08-19T12:20:25.781Z,97644.22
2022-08-19T12:21:31.811Z,97641.91
2022-08-19T12:22:34.566Z,97644.00
2022-08-19T12:23:38.780Z,97637.81
2022-08-19T12:24:41.647Z,97638.00
2022-08-19T12:25:51.270Z,97628.88
2022-08-19T12:27:02.941Z,97631.75
2022-08-19T12:28:06.193Z,97636.22
2022-08-19T12:29:09.616Z,97631.81
2022-08-19T12:30:13.792Z,97631.63
2022-08-19T12:31:17.568Z,97636.94
2022-08-19T12:32:20.468Z,97640.19
2022-08-19T12:33:26.112Z,97643.88
2022-08-19T12:34:32.817Z,97648.22
2022-08-19T12:35:35.503Z,97638.69
2022-08-19T12:36:38.955Z,97631.31
2022-08-19T12:37:43.461Z,97631.72
2022-08-19T12:38:47.893Z,97624.63
2022-08-19T12:39:50.602Z,97620.59
2022-08-19T12:40:57.134Z,97615.37
2022-08-19T12:42:02.426Z,97620.50
2022-08-19T12:43:05.364Z,97609.09
2022-08-19T12:44:10.469Z,97615.63
2022-08-19T12:45:15.173Z,97611.69
2022-08-19T12:46:20.397Z,97619.69
2022-08-19T12:47:27.641Z,97621.72
2022-08-19T12:48:32.957Z,97615.28
2022-08-19T12:49:53.315Z,97607.25
2022-08-19T12:50:58.101Z,97615.37
2022-08-19T12:52:09.029Z,97611.94
2022-08-19T12:53:12.302Z,97609.16
2022-08-19T12:54:16.000Z,97597.28
2022-08-19T12:55:21.857Z,97596.06
2022-08-19T12:56:24.600Z,97597.97
2022-08-19T12:57:36.818Z,97592.41
2022-08-19T12:58:40.498Z,97597.97
2022-08-19T12:59:43.918Z,97603.28
2022-08-19T13:00:46.753Z,97607.13
2022-08-19T13:01:49.637Z,97603.84
2022-08-19T13:02:53.537Z,97614.16